sensor_id;sensor_type;location;lat;lon;timestamp;P1;durP1;ratioP1;P2;durP2;ratioP2
3359;SDS011;1693;49.602;11.046;2024-03-08T00:01:03;15.60;;;8.33;;
3359;SDS011;1693;49.602;11.046;2024-03-08T00:03:32;11.87;;;8.33;;
3359;SDS011;1693;49.602;11.046;2024-03-08T00:06:00;17.50;;;10.17;;
3359;SDS011;1693;49.602;11.046;2024-03-08T00:08:27;18.07;;;10.47;;
3359;SDS011;1693;49.602;11.046;2024-03-08T00:10:56;17.80;;;9.60;;
3359;SDS011;1693;49.602;11.046;2024-03-08T00:13:24;14.63;;;10.00;;
3359;SDS011;1693;49.602;11.046;2024-03-08T00:15:51;13.43;;;9.10;;
3359;SDS011;1693;49.602;11.046;2024-03-08T00:18:18;16.67;;;10.13;;
3359;SDS011;1693;49.602;11.046;2024-03-08T00:20:45;14.23;;;9.00;;
3359;SDS011;1693;49.602;11.046;2024-03-08T00:23:12;14.30;;;9.80;;
3359;SDS011;1693;49.602;11.046;2024-03-08T00:25:41;16.93;;;9.80;;
3359;SDS011;1693;49.602;11.046;2024-03-08T00:28:07;15.47;;;10.30;;
3359;SDS011;1693;49.602;11.046;2024-03-08T00:30:39;19.77;;;10.77;;
3359;SDS011;1693;49.602;11.046;2024-03-08T00:33:08;18.50;;;10.73;;
3359;SDS011;1693;49.602;11.046;2024-03-08T00:35:35;14.77;;;8.50;;
3359;SDS011;1693;49.602;11.046;2024-03-08T00:38:02;11.53;;;8.03;;
3359;SDS011;1693;49.602;11.046;2024-03-08T00:40:29;15.90;;;10.70;;
3359;SDS011;1693;49.602;11.046;2024-03-08T00:42:56;12.30;;;8.17;;
3359;SDS011;1693;49.602;11.046;2024-03-08T00:45:23;16.73;;;10.43;;
3359;SDS011;1693;49.602;11.046;2024-03-08T00:47:51;16.93;;;9.83;;
3359;SDS011;1693;49.602;11.046;2024-03-08T00:50:19;20.27;;;10.37;;
3359;SDS011;1693;49.602;11.046;2024-03-08T00:52:46;16.17;;;10.67;;
3359;SDS011;1693;49.602;11.046;2024-03-08T00:55:12;19.77;;;11.70;;
3359;SDS011;1693;49.602;11.046;2024-03-08T00:57:40;12.77;;;9.23;;
3359;SDS011;1693;49.602;11.046;2024-03-08T01:00:08;16.73;;;10.07;;
3359;SDS011;1693;49.602;11.046;2024-03-08T01:02:37;17.80;;;11.30;;
3359;SDS011;1693;49.602;11.046;2024-03-08T01:05:06;18.20;;;10.87;;
3359;SDS011;1693;49.602;11.046;2024-03-08T01:07:33;17.60;;;10.03;;
3359;SDS011;1693;49.602;11.046;2024-03-08T01:10:01;18.07;;;11.90;;
3359;SDS011;1693;49.602;11.046;2024-03-08T01:12:28;18.60;;;10.80;;
3359;SDS011;1693;49.602;11.046;2024-03-08T01:14:55;16.80;;;10.77;;
3359;SDS011;1693;49.602;11.046;2024-03-08T01:17:23;17.30;;;10.50;;
3359;SDS011;1693;49.602;11.046;2024-03-08T01:19:51;15.20;;;10.03;;
3359;SDS011;1693;49.602;11.046;2024-03-08T01:22:19;18.30;;;10.80;;
3359;SDS011;1693;49.602;11.046;2024-03-08T01:24:48;19.90;;;12.43;;
3359;SDS011;1693;49.602;11.046;2024-03-08T01:27:15;18.27;;;11.60;;
3359;SDS011;1693;49.602;11.046;2024-03-08T01:29:42;17.07;;;9.50;;
3359;SDS011;1693;49.602;11.046;2024-03-08T01:32:08;15.07;;;11.00;;
3359;SDS011;1693;49.602;11.046;2024-03-08T01:34:35;16.23;;;9.50;;
3359;SDS011;1693;49.602;11.046;2024-03-08T01:37:02;25.03;;;10.50;;
3359;SDS011;1693;49.602;11.046;2024-03-08T01:39:31;15.03;;;8.70;;
3359;SDS011;1693;49.602;11.046;2024-03-08T01:41:58;15.63;;;11.30;;
3359;SDS011;1693;49.602;11.046;2024-03-08T01:44:26;12.67;;;8.90;;
3359;SDS011;1693;49.602;11.046;2024-03-08T01:46:53;15.80;;;9.10;;
3359;SDS011;1693;49.602;11.046;2024-03-08T01:49:21;19.20;;;9.20;;
3359;SDS011;1693;49.602;11.046;2024-03-08T01:51:48;18.20;;;10.20;;
3359;SDS011;1693;49.602;11.046;2024-03-08T01:54:16;16.63;;;11.30;;
3359;SDS011;1693;49.602;11.046;2024-03-08T01:56:47;17.80;;;10.10;;
3359;SDS011;1693;49.602;11.046;2024-03-08T01:59:14;19.50;;;10.60;;
3359;SDS011;1693;49.602;11.046;2024-03-08T02:01:41;15.00;;;10.77;;
3359;SDS011;1693;49.602;11.046;2024-03-08T02:04:08;18.07;;;10.63;;
3359;SDS011;1693;49.602;11.046;2024-03-08T02:06:36;14.33;;;9.60;;
3359;SDS011;1693;49.602;11.046;2024-03-08T02:09:04;14.20;;;8.90;;
3359;SDS011;1693;49.602;11.046;2024-03-08T02:11:32;15.10;;;9.93;;
3359;SDS011;1693;49.602;11.046;2024-03-08T02:14:02;14.17;;;10.03;;
3359;SDS011;1693;49.602;11.046;2024-03-08T02:16:31;15.17;;;9.30;;
3359;SDS011;1693;49.602;11.046;2024-03-08T02:18:58;19.03;;;11.47;;
3359;SDS011;1693;49.602;11.046;2024-03-08T02:21:27;21.33;;;11.60;;
3359;SDS011;1693;49.602;11.046;2024-03-08T02:23:54;17.80;;;10.80;;
3359;SDS011;1693;49.602;11.046;2024-03-08T02:26:22;17.07;;;10.50;;
3359;SDS011;1693;49.602;11.046;2024-03-08T02:28:49;14.93;;;10.67;;
3359;SDS011;1693;49.602;11.046;2024-03-08T02:31:16;16.67;;;10.23;;
3359;SDS011;1693;49.602;11.046;2024-03-08T02:33:43;13.83;;;9.67;;
3359;SDS011;1693;49.602;11.046;2024-03-08T02:36:13;15.00;;;9.17;;
3359;SDS011;1693;49.602;11.046;2024-03-08T02:38:42;13.80;;;9.53;;
3359;SDS011;1693;49.602;11.046;2024-03-08T02:41:09;15.80;;;11.90;;
3359;SDS011;1693;49.602;11.046;2024-03-08T02:43:36;14.63;;;9.67;;
3359;SDS011;1693;49.602;11.046;2024-03-08T02:46:03;15.40;;;10.00;;
3359;SDS011;1693;49.602;11.046;2024-03-08T02:48:30;21.53;;;10.13;;
3359;SDS011;1693;49.602;11.046;2024-03-08T02:50:57;17.47;;;11.23;;
3359;SDS011;1693;49.602;11.046;2024-03-08T02:53:24;15.27;;;9.57;;
3359;SDS011;1693;49.602;11.046;2024-03-08T02:55:52;15.07;;;8.90;;
3359;SDS011;1693;49.602;11.046;2024-03-08T02:58:20;18.13;;;11.00;;
3359;SDS011;1693;49.602;11.046;2024-03-08T03:00:48;19.07;;;11.53;;
3359;SDS011;1693;49.602;11.046;2024-03-08T03:03:16;17.50;;;10.73;;
3359;SDS011;1693;49.602;11.046;2024-03-08T03:05:43;18.17;;;11.57;;
3359;SDS011;1693;49.602;11.046;2024-03-08T03:08:10;23.67;;;11.77;;
3359;SDS011;1693;49.602;11.046;2024-03-08T03:10:38;16.97;;;10.33;;
3359;SDS011;1693;49.602;11.046;2024-03-08T03:13:07;18.47;;;10.33;;
3359;SDS011;1693;49.602;11.046;2024-03-08T03:15:34;17.20;;;9.83;;
3359;SDS011;1693;49.602;11.046;2024-03-08T03:18:01;15.93;;;9.47;;
3359;SDS011;1693;49.602;11.046;2024-03-08T03:20:28;15.63;;;9.43;;
3359;SDS011;1693;49.602;11.046;2024-03-08T03:22:57;15.73;;;11.10;;
3359;SDS011;1693;49.602;11.046;2024-03-08T03:25:26;28.80;;;12.70;;
3359;SDS011;1693;49.602;11.046;2024-03-08T03:27:59;14.83;;;10.73;;
3359;SDS011;1693;49.602;11.046;2024-03-08T03:30:28;22.53;;;12.17;;
3359;SDS011;1693;49.602;11.046;2024-03-08T03:32:58;19.97;;;11.07;;
3359;SDS011;1693;49.602;11.046;2024-03-08T03:35:26;21.40;;;11.80;;
3359;SDS011;1693;49.602;11.046;2024-03-08T03:37:54;19.17;;;11.60;;
3359;SDS011;1693;49.602;11.046;2024-03-08T03:40:31;19.30;;;12.50;;
3359;SDS011;1693;49.602;11.046;2024-03-08T03:42:58;19.60;;;10.50;;
3359;SDS011;1693;49.602;11.046;2024-03-08T03:45:25;18.07;;;12.00;;
3359;SDS011;1693;49.602;11.046;2024-03-08T03:47:54;19.30;;;10.47;;
3359;SDS011;1693;49.602;11.046;2024-03-08T03:50:21;19.70;;;10.80;;
3359;SDS011;1693;49.602;11.046;2024-03-08T03:52:48;18.27;;;10.40;;
3359;SDS011;1693;49.602;11.046;2024-03-08T03:55:15;14.90;;;9.20;;
3359;SDS011;1693;49.602;11.046;2024-03-08T03:57:43;23.33;;;11.43;;
3359;SDS011;1693;49.602;11.046;2024-03-08T04:00:11;18.33;;;13.13;;
3359;SDS011;1693;49.602;11.046;2024-03-08T04:02:40;16.40;;;12.07;;
3359;SDS011;1693;49.602;11.046;2024-03-08T04:05:08;16.70;;;10.53;;
3359;SDS011;1693;49.602;11.046;2024-03-08T04:07:36;17.63;;;10.77;;
3359;SDS011;1693;49.602;11.046;2024-03-08T04:10:05;17.07;;;11.03;;
3359;SDS011;1693;49.602;11.046;2024-03-08T04:12:33;19.03;;;12.13;;
3359;SDS011;1693;49.602;11.046;2024-03-08T04:15:00;15.60;;;10.70;;
3359;SDS011;1693;49.602;11.046;2024-03-08T04:17:28;14.07;;;9.10;;
3359;SDS011;1693;49.602;11.046;2024-03-08T04:19:56;21.07;;;13.17;;
3359;SDS011;1693;49.602;11.046;2024-03-08T04:22:24;21.40;;;12.40;;
3359;SDS011;1693;49.602;11.046;2024-03-08T04:24:51;15.47;;;10.20;;
3359;SDS011;1693;49.602;11.046;2024-03-08T04:27:18;25.50;;;12.60;;
3359;SDS011;1693;49.602;11.046;2024-03-08T04:29:45;21.07;;;11.43;;
3359;SDS011;1693;49.602;11.046;2024-03-08T04:32:12;17.57;;;10.97;;
3359;SDS011;1693;49.602;11.046;2024-03-08T04:34:39;16.17;;;10.97;;
3359;SDS011;1693;49.602;11.046;2024-03-08T04:37:07;17.67;;;12.30;;
3359;SDS011;1693;49.602;11.046;2024-03-08T04:39:38;21.17;;;10.80;;
3359;SDS011;1693;49.602;11.046;2024-03-08T04:42:05;20.93;;;12.17;;
3359;SDS011;1693;49.602;11.046;2024-03-08T04:44:35;18.33;;;9.53;;
3359;SDS011;1693;49.602;11.046;2024-03-08T04:47:03;20.10;;;11.30;;
3359;SDS011;1693;49.602;11.046;2024-03-08T04:49:30;20.70;;;12.53;;
3359;SDS011;1693;49.602;11.046;2024-03-08T04:51:59;14.37;;;10.33;;
3359;SDS011;1693;49.602;11.046;2024-03-08T04:54:29;17.90;;;10.27;;
3359;SDS011;1693;49.602;11.046;2024-03-08T04:56:56;19.40;;;10.00;;
3359;SDS011;1693;49.602;11.046;2024-03-08T04:59:25;16.73;;;10.80;;
3359;SDS011;1693;49.602;11.046;2024-03-08T05:01:53;20.70;;;11.30;;
3359;SDS011;1693;49.602;11.046;2024-03-08T05:04:20;23.20;;;13.07;;
3359;SDS011;1693;49.602;11.046;2024-03-08T05:06:47;19.77;;;11.33;;
3359;SDS011;1693;49.602;11.046;2024-03-08T05:09:16;17.90;;;10.60;;
3359;SDS011;1693;49.602;11.046;2024-03-08T05:11:45;21.67;;;13.23;;
3359;SDS011;1693;49.602;11.046;2024-03-08T05:14:13;19.80;;;12.47;;
3359;SDS011;1693;49.602;11.046;2024-03-08T05:16:42;16.57;;;9.87;;
3359;SDS011;1693;49.602;11.046;2024-03-08T05:19:09;18.27;;;12.80;;
3359;SDS011;1693;49.602;11.046;2024-03-08T05:21:36;24.17;;;13.13;;
3359;SDS011;1693;49.602;11.046;2024-03-08T05:24:03;18.07;;;11.30;;
3359;SDS011;1693;49.602;11.046;2024-03-08T05:26:30;21.73;;;13.50;;
3359;SDS011;1693;49.602;11.046;2024-03-08T05:28:59;16.63;;;10.80;;
3359;SDS011;1693;49.602;11.046;2024-03-08T05:31:26;21.67;;;12.30;;
3359;SDS011;1693;49.602;11.046;2024-03-08T05:33:53;22.07;;;12.73;;
3359;SDS011;1693;49.602;11.046;2024-03-08T05:36:20;24.03;;;12.97;;
3359;SDS011;1693;49.602;11.046;2024-03-08T05:38:48;18.77;;;12.50;;
3359;SDS011;1693;49.602;11.046;2024-03-08T05:41:15;18.43;;;11.53;;
3359;SDS011;1693;49.602;11.046;2024-03-08T05:43:43;17.40;;;12.03;;
3359;SDS011;1693;49.602;11.046;2024-03-08T05:46:14;18.93;;;12.30;;
3359;SDS011;1693;49.602;11.046;2024-03-08T05:48:43;22.27;;;12.93;;
3359;SDS011;1693;49.602;11.046;2024-03-08T05:51:10;18.70;;;11.30;;
3359;SDS011;1693;49.602;11.046;2024-03-08T05:53:38;20.43;;;12.37;;
3359;SDS011;1693;49.602;11.046;2024-03-08T05:56:05;24.27;;;12.40;;
3359;SDS011;1693;49.602;11.046;2024-03-08T05:58:34;28.47;;;12.47;;
3359;SDS011;1693;49.602;11.046;2024-03-08T06:01:01;19.70;;;12.70;;
3359;SDS011;1693;49.602;11.046;2024-03-08T06:03:34;22.40;;;13.67;;
3359;SDS011;1693;49.602;11.046;2024-03-08T06:06:01;20.93;;;11.33;;
3359;SDS011;1693;49.602;11.046;2024-03-08T06:08:28;26.33;;;12.30;;
3359;SDS011;1693;49.602;11.046;2024-03-08T06:10:55;16.80;;;10.00;;
3359;SDS011;1693;49.602;11.046;2024-03-08T06:13:24;21.60;;;12.80;;
3359;SDS011;1693;49.602;11.046;2024-03-08T06:15:51;22.80;;;12.73;;
3359;SDS011;1693;49.602;11.046;2024-03-08T06:18:18;20.20;;;13.50;;
3359;SDS011;1693;49.602;11.046;2024-03-08T06:20:47;20.00;;;13.07;;
3359;SDS011;1693;49.602;11.046;2024-03-08T06:23:14;19.00;;;11.43;;
3359;SDS011;1693;49.602;11.046;2024-03-08T06:25:42;24.00;;;13.50;;
3359;SDS011;1693;49.602;11.046;2024-03-08T06:28:09;22.33;;;15.00;;
3359;SDS011;1693;49.602;11.046;2024-03-08T06:30:37;25.50;;;13.97;;
3359;SDS011;1693;49.602;11.046;2024-03-08T06:33:04;21.23;;;13.00;;
3359;SDS011;1693;49.602;11.046;2024-03-08T06:35:32;22.00;;;12.53;;
3359;SDS011;1693;49.602;11.046;2024-03-08T06:38:04;27.63;;;15.10;;
3359;SDS011;1693;49.602;11.046;2024-03-08T06:40:31;21.50;;;14.50;;
3359;SDS011;1693;49.602;11.046;2024-03-08T06:42:58;23.03;;;13.73;;
3359;SDS011;1693;49.602;11.046;2024-03-08T06:45:25;20.00;;;12.20;;
3359;SDS011;1693;49.602;11.046;2024-03-08T06:47:54;24.27;;;13.77;;
3359;SDS011;1693;49.602;11.046;2024-03-08T06:50:21;22.13;;;14.30;;
3359;SDS011;1693;49.602;11.046;2024-03-08T06:52:49;28.83;;;17.63;;
3359;SDS011;1693;49.602;11.046;2024-03-08T06:55:20;25.53;;;16.30;;
3359;SDS011;1693;49.602;11.046;2024-03-08T06:57:47;24.53;;;16.43;;
3359;SDS011;1693;49.602;11.046;2024-03-08T07:00:14;25.10;;;14.57;;
3359;SDS011;1693;49.602;11.046;2024-03-08T07:02:46;20.67;;;15.00;;
3359;SDS011;1693;49.602;11.046;2024-03-08T07:05:37;26.87;;;14.10;;
3359;SDS011;1693;49.602;11.046;2024-03-08T07:08:31;24.83;;;14.17;;
3359;SDS011;1693;49.602;11.046;2024-03-08T07:11:00;24.90;;;13.60;;
3359;SDS011;1693;49.602;11.046;2024-03-08T07:13:27;25.03;;;13.83;;
3359;SDS011;1693;49.602;11.046;2024-03-08T07:15:54;23.50;;;13.20;;
3359;SDS011;1693;49.602;11.046;2024-03-08T07:18:22;26.70;;;16.27;;
3359;SDS011;1693;49.602;11.046;2024-03-08T07:20:49;24.77;;;13.20;;
3359;SDS011;1693;49.602;11.046;2024-03-08T07:23:19;20.90;;;11.40;;
3359;SDS011;1693;49.602;11.046;2024-03-08T07:26:05;18.83;;;12.03;;
3359;SDS011;1693;49.602;11.046;2024-03-08T07:28:32;19.00;;;11.53;;
3359;SDS011;1693;49.602;11.046;2024-03-08T07:31:00;16.00;;;12.03;;
3359;SDS011;1693;49.602;11.046;2024-03-08T07:33:46;21.27;;;13.00;;
3359;SDS011;1693;49.602;11.046;2024-03-08T07:36:15;15.37;;;10.57;;
3359;SDS011;1693;49.602;11.046;2024-03-08T07:38:42;23.27;;;11.70;;
3359;SDS011;1693;49.602;11.046;2024-03-08T07:41:13;21.97;;;12.97;;
3359;SDS011;1693;49.602;11.046;2024-03-08T07:43:42;19.30;;;12.00;;
3359;SDS011;1693;49.602;11.046;2024-03-08T07:46:09;17.20;;;11.23;;
3359;SDS011;1693;49.602;11.046;2024-03-08T07:48:38;18.90;;;10.43;;
3359;SDS011;1693;49.602;11.046;2024-03-08T07:51:06;15.13;;;10.33;;
3359;SDS011;1693;49.602;11.046;2024-03-08T07:53:34;16.00;;;9.57;;
3359;SDS011;1693;49.602;11.046;2024-03-08T07:56:03;15.07;;;9.10;;
3359;SDS011;1693;49.602;11.046;2024-03-08T07:58:33;18.97;;;11.87;;
3359;SDS011;1693;49.602;11.046;2024-03-08T08:01:00;14.50;;;10.40;;
3359;SDS011;1693;49.602;11.046;2024-03-08T08:03:27;15.03;;;10.73;;
3359;SDS011;1693;49.602;11.046;2024-03-08T08:05:55;18.53;;;11.57;;
3359;SDS011;1693;49.602;11.046;2024-03-08T08:08:22;17.57;;;11.67;;
3359;SDS011;1693;49.602;11.046;2024-03-08T08:10:51;18.30;;;12.17;;
3359;SDS011;1693;49.602;11.046;2024-03-08T08:13:18;14.17;;;8.50;;
3359;SDS011;1693;49.602;11.046;2024-03-08T08:15:47;16.90;;;11.33;;
3359;SDS011;1693;49.602;11.046;2024-03-08T08:18:15;16.40;;;10.53;;
3359;SDS011;1693;49.602;11.046;2024-03-08T08:20:44;19.10;;;11.73;;
3359;SDS011;1693;49.602;11.046;2024-03-08T08:23:11;14.37;;;10.47;;
3359;SDS011;1693;49.602;11.046;2024-03-08T08:25:39;14.90;;;9.73;;
3359;SDS011;1693;49.602;11.046;2024-03-08T08:28:06;15.53;;;10.30;;
3359;SDS011;1693;49.602;11.046;2024-03-08T08:30:34;21.80;;;11.43;;
3359;SDS011;1693;49.602;11.046;2024-03-08T08:33:02;17.33;;;10.00;;
3359;SDS011;1693;49.602;11.046;2024-03-08T08:35:30;15.50;;;10.80;;
3359;SDS011;1693;49.602;11.046;2024-03-08T08:37:58;16.40;;;9.97;;
3359;SDS011;1693;49.602;11.046;2024-03-08T08:40:25;19.93;;;10.30;;
3359;SDS011;1693;49.602;11.046;2024-03-08T08:42:52;15.33;;;10.17;;
3359;SDS011;1693;49.602;11.046;2024-03-08T08:45:19;18.43;;;10.60;;
3359;SDS011;1693;49.602;11.046;2024-03-08T08:47:47;15.27;;;9.40;;
3359;SDS011;1693;49.602;11.046;2024-03-08T08:50:15;15.10;;;10.10;;
3359;SDS011;1693;49.602;11.046;2024-03-08T08:52:48;17.00;;;9.73;;
3359;SDS011;1693;49.602;11.046;2024-03-08T08:55:16;15.30;;;9.70;;
3359;SDS011;1693;49.602;11.046;2024-03-08T08:57:46;13.63;;;9.57;;
3359;SDS011;1693;49.602;11.046;2024-03-08T09:00:14;14.60;;;9.47;;
3359;SDS011;1693;49.602;11.046;2024-03-08T09:02:44;17.87;;;9.90;;
3359;SDS011;1693;49.602;11.046;2024-03-08T09:05:12;15.27;;;9.43;;
3359;SDS011;1693;49.602;11.046;2024-03-08T09:07:43;13.33;;;8.83;;
3359;SDS011;1693;49.602;11.046;2024-03-08T09:10:11;14.87;;;9.17;;
3359;SDS011;1693;49.602;11.046;2024-03-08T09:12:39;13.10;;;9.60;;
3359;SDS011;1693;49.602;11.046;2024-03-08T09:15:08;14.57;;;8.60;;
3359;SDS011;1693;49.602;11.046;2024-03-08T09:17:36;10.57;;;7.57;;
3359;SDS011;1693;49.602;11.046;2024-03-08T09:20:05;9.60;;;7.73;;
3359;SDS011;1693;49.602;11.046;2024-03-08T09:22:35;11.17;;;6.63;;
3359;SDS011;1693;49.602;11.046;2024-03-08T09:25:04;11.93;;;7.90;;
3359;SDS011;1693;49.602;11.046;2024-03-08T09:27:32;22.17;;;8.47;;
3359;SDS011;1693;49.602;11.046;2024-03-08T09:30:00;13.10;;;7.77;;
3359;SDS011;1693;49.602;11.046;2024-03-08T09:32:28;16.27;;;9.30;;
3359;SDS011;1693;49.602;11.046;2024-03-08T09:34:55;11.43;;;7.90;;
3359;SDS011;1693;49.602;11.046;2024-03-08T09:37:23;13.10;;;7.93;;
3359;SDS011;1693;49.602;11.046;2024-03-08T09:39:50;13.17;;;8.57;;
3359;SDS011;1693;49.602;11.046;2024-03-08T09:42:18;13.53;;;7.30;;
3359;SDS011;1693;49.602;11.046;2024-03-08T09:44:46;11.60;;;7.00;;
3359;SDS011;1693;49.602;11.046;2024-03-08T09:47:14;9.87;;;7.00;;
3359;SDS011;1693;49.602;11.046;2024-03-08T09:49:41;12.87;;;6.77;;
3359;SDS011;1693;49.602;11.046;2024-03-08T09:52:08;9.00;;;6.27;;
3359;SDS011;1693;49.602;11.046;2024-03-08T09:54:37;12.07;;;7.90;;
3359;SDS011;1693;49.602;11.046;2024-03-08T09:57:05;12.70;;;6.70;;
3359;SDS011;1693;49.602;11.046;2024-03-08T09:59:35;9.87;;;7.23;;
3359;SDS011;1693;49.602;11.046;2024-03-08T10:02:13;10.50;;;6.60;;
3359;SDS011;1693;49.602;11.046;2024-03-08T10:04:41;15.50;;;8.33;;
3359;SDS011;1693;49.602;11.046;2024-03-08T10:07:11;11.63;;;7.20;;
3359;SDS011;1693;49.602;11.046;2024-03-08T10:09:38;11.80;;;7.60;;
3359;SDS011;1693;49.602;11.046;2024-03-08T10:12:07;13.67;;;7.97;;
3359;SDS011;1693;49.602;11.046;2024-03-08T10:14:40;16.00;;;6.93;;
3359;SDS011;1693;49.602;11.046;2024-03-08T10:17:08;8.50;;;6.13;;
3359;SDS011;1693;49.602;11.046;2024-03-08T10:19:37;9.73;;;5.87;;
3359;SDS011;1693;49.602;11.046;2024-03-08T10:22:04;14.53;;;7.10;;
3359;SDS011;1693;49.602;11.046;2024-03-08T10:24:32;10.20;;;7.30;;
3359;SDS011;1693;49.602;11.046;2024-03-08T10:27:00;11.50;;;7.00;;
3359;SDS011;1693;49.602;11.046;2024-03-08T10:29:30;12.03;;;6.87;;
3359;SDS011;1693;49.602;11.046;2024-03-08T10:31:59;14.20;;;8.33;;
3359;SDS011;1693;49.602;11.046;2024-03-08T10:34:26;13.47;;;7.10;;
3359;SDS011;1693;49.602;11.046;2024-03-08T10:36:54;8.43;;;5.60;;
3359;SDS011;1693;49.602;11.046;2024-03-08T10:39:33;12.43;;;5.90;;
3359;SDS011;1693;49.602;11.046;2024-03-08T10:42:02;10.10;;;5.50;;
3359;SDS011;1693;49.602;11.046;2024-03-08T10:44:41;8.40;;;5.97;;
3359;SDS011;1693;49.602;11.046;2024-03-08T10:47:19;7.03;;;5.70;;
3359;SDS011;1693;49.602;11.046;2024-03-08T10:49:54;7.33;;;5.03;;
3359;SDS011;1693;49.602;11.046;2024-03-08T10:52:21;9.30;;;5.33;;
3359;SDS011;1693;49.602;11.046;2024-03-08T10:54:49;6.47;;;4.83;;
3359;SDS011;1693;49.602;11.046;2024-03-08T10:57:17;8.03;;;6.03;;
3359;SDS011;1693;49.602;11.046;2024-03-08T10:59:47;8.00;;;4.67;;
3359;SDS011;1693;49.602;11.046;2024-03-08T11:02:15;9.40;;;4.90;;
3359;SDS011;1693;49.602;11.046;2024-03-08T11:04:48;7.53;;;5.73;;
3359;SDS011;1693;49.602;11.046;2024-03-08T11:07:18;9.00;;;6.13;;
3359;SDS011;1693;49.602;11.046;2024-03-08T11:09:47;7.23;;;4.33;;
3359;SDS011;1693;49.602;11.046;2024-03-08T11:12:21;7.23;;;4.80;;
3359;SDS011;1693;49.602;11.046;2024-03-08T11:14:54;6.37;;;4.53;;
3359;SDS011;1693;49.602;11.046;2024-03-08T11:17:25;9.07;;;5.23;;
3359;SDS011;1693;49.602;11.046;2024-03-08T11:20:12;7.63;;;5.40;;
3359;SDS011;1693;49.602;11.046;2024-03-08T11:22:49;8.00;;;4.77;;
3359;SDS011;1693;49.602;11.046;2024-03-08T11:25:33;8.13;;;4.50;;
3359;SDS011;1693;49.602;11.046;2024-03-08T11:28:10;5.70;;;4.00;;
3359;SDS011;1693;49.602;11.046;2024-03-08T11:30:46;5.80;;;4.63;;
3359;SDS011;1693;49.602;11.046;2024-03-08T11:33:34;9.23;;;5.17;;
3359;SDS011;1693;49.602;11.046;2024-03-08T11:36:09;6.97;;;3.97;;
3359;SDS011;1693;49.602;11.046;2024-03-08T11:38:41;5.40;;;4.63;;
3359;SDS011;1693;49.602;11.046;2024-03-08T11:41:09;9.33;;;4.27;;
3359;SDS011;1693;49.602;11.046;2024-03-08T11:43:39;8.73;;;5.17;;
3359;SDS011;1693;49.602;11.046;2024-03-08T11:46:09;6.47;;;4.30;;
3359;SDS011;1693;49.602;11.046;2024-03-08T11:48:37;10.43;;;5.20;;
3359;SDS011;1693;49.602;11.046;2024-03-08T11:51:04;5.43;;;3.87;;
3359;SDS011;1693;49.602;11.046;2024-03-08T11:53:34;3.97;;;3.50;;
3359;SDS011;1693;49.602;11.046;2024-03-08T11:56:05;7.97;;;5.17;;
3359;SDS011;1693;49.602;11.046;2024-03-08T11:58:34;5.00;;;3.63;;
3359;SDS011;1693;49.602;11.046;2024-03-08T12:01:02;5.40;;;3.83;;
3359;SDS011;1693;49.602;11.046;2024-03-08T12:03:31;5.90;;;4.90;;
3359;SDS011;1693;49.602;11.046;2024-03-08T12:06:00;5.93;;;4.27;;
3359;SDS011;1693;49.602;11.046;2024-03-08T12:08:28;7.07;;;4.10;;
3359;SDS011;1693;49.602;11.046;2024-03-08T12:10:58;10.47;;;6.07;;
3359;SDS011;1693;49.602;11.046;2024-03-08T12:13:26;4.57;;;3.63;;
3359;SDS011;1693;49.602;11.046;2024-03-08T12:15:55;8.60;;;4.90;;
3359;SDS011;1693;49.602;11.046;2024-03-08T12:18:23;7.80;;;5.30;;
3359;SDS011;1693;49.602;11.046;2024-03-08T12:20:50;5.20;;;3.70;;
3359;SDS011;1693;49.602;11.046;2024-03-08T12:23:17;9.63;;;5.40;;
3359;SDS011;1693;49.602;11.046;2024-03-08T12:25:44;6.43;;;4.23;;
3359;SDS011;1693;49.602;11.046;2024-03-08T12:28:14;6.27;;;4.43;;
3359;SDS011;1693;49.602;11.046;2024-03-08T12:30:46;6.30;;;3.67;;
3359;SDS011;1693;49.602;11.046;2024-03-08T12:33:14;4.67;;;4.10;;
3359;SDS011;1693;49.602;11.046;2024-03-08T12:35:49;7.33;;;4.07;;
3359;SDS011;1693;49.602;11.046;2024-03-08T12:38:18;4.17;;;2.87;;
3359;SDS011;1693;49.602;11.046;2024-03-08T12:40:50;4.00;;;3.60;;
3359;SDS011;1693;49.602;11.046;2024-03-08T12:43:23;6.93;;;4.50;;
3359;SDS011;1693;49.602;11.046;2024-03-08T12:45:50;7.70;;;4.87;;
3359;SDS011;1693;49.602;11.046;2024-03-08T12:48:18;6.43;;;4.80;;
3359;SDS011;1693;49.602;11.046;2024-03-08T12:50:45;7.90;;;4.00;;
3359;SDS011;1693;49.602;11.046;2024-03-08T12:53:13;6.80;;;4.67;;
3359;SDS011;1693;49.602;11.046;2024-03-08T12:55:40;5.87;;;4.33;;
3359;SDS011;1693;49.602;11.046;2024-03-08T12:58:07;7.20;;;4.80;;
3359;SDS011;1693;49.602;11.046;2024-03-08T13:00:35;4.43;;;2.87;;
3359;SDS011;1693;49.602;11.046;2024-03-08T13:03:04;5.10;;;3.50;;
3359;SDS011;1693;49.602;11.046;2024-03-08T13:05:31;6.00;;;4.07;;
3359;SDS011;1693;49.602;11.046;2024-03-08T13:07:59;6.33;;;4.10;;
3359;SDS011;1693;49.602;11.046;2024-03-08T13:10:26;7.77;;;3.83;;
3359;SDS011;1693;49.602;11.046;2024-03-08T13:12:53;5.60;;;4.20;;
3359;SDS011;1693;49.602;11.046;2024-03-08T13:15:20;5.20;;;3.53;;
3359;SDS011;1693;49.602;11.046;2024-03-08T13:17:49;5.43;;;3.57;;
3359;SDS011;1693;49.602;11.046;2024-03-08T13:20:16;8.70;;;6.13;;
3359;SDS011;1693;49.602;11.046;2024-03-08T13:22:45;7.23;;;5.03;;
3359;SDS011;1693;49.602;11.046;2024-03-08T13:25:12;4.40;;;3.73;;
3359;SDS011;1693;49.602;11.046;2024-03-08T13:27:39;3.97;;;2.63;;
3359;SDS011;1693;49.602;11.046;2024-03-08T13:30:08;4.37;;;3.07;;
3359;SDS011;1693;49.602;11.046;2024-03-08T13:32:39;4.07;;;3.07;;
3359;SDS011;1693;49.602;11.046;2024-03-08T13:35:09;5.53;;;3.60;;
3359;SDS011;1693;49.602;11.046;2024-03-08T13:37:37;3.97;;;3.43;;
3359;SDS011;1693;49.602;11.046;2024-03-08T13:40:05;4.77;;;2.70;;
3359;SDS011;1693;49.602;11.046;2024-03-08T13:42:36;5.00;;;3.90;;
3359;SDS011;1693;49.602;11.046;2024-03-08T13:45:03;4.17;;;2.30;;
3359;SDS011;1693;49.602;11.046;2024-03-08T13:47:32;4.00;;;3.43;;
3359;SDS011;1693;49.602;11.046;2024-03-08T13:50:01;6.50;;;4.30;;
3359;SDS011;1693;49.602;11.046;2024-03-08T13:52:29;6.57;;;3.90;;
3359;SDS011;1693;49.602;11.046;2024-03-08T13:54:56;7.17;;;4.63;;
3359;SDS011;1693;49.602;11.046;2024-03-08T13:57:24;6.27;;;4.30;;
3359;SDS011;1693;49.602;11.046;2024-03-08T13:59:52;4.47;;;3.10;;
3359;SDS011;1693;49.602;11.046;2024-03-08T14:02:20;7.50;;;4.77;;
3359;SDS011;1693;49.602;11.046;2024-03-08T14:04:48;4.97;;;3.67;;
3359;SDS011;1693;49.602;11.046;2024-03-08T14:07:15;4.33;;;3.47;;
3359;SDS011;1693;49.602;11.046;2024-03-08T14:09:44;6.40;;;3.33;;
3359;SDS011;1693;49.602;11.046;2024-03-08T14:12:11;4.07;;;3.00;;
3359;SDS011;1693;49.602;11.046;2024-03-08T14:14:40;5.77;;;4.30;;
3359;SDS011;1693;49.602;11.046;2024-03-08T14:17:07;6.27;;;3.47;;
3359;SDS011;1693;49.602;11.046;2024-03-08T14:19:35;5.73;;;4.50;;
3359;SDS011;1693;49.602;11.046;2024-03-08T14:22:04;8.30;;;4.53;;
3359;SDS011;1693;49.602;11.046;2024-03-08T14:24:32;5.50;;;3.60;;
3359;SDS011;1693;49.602;11.046;2024-03-08T14:27:01;4.07;;;2.93;;
3359;SDS011;1693;49.602;11.046;2024-03-08T14:29:29;6.40;;;4.13;;
3359;SDS011;1693;49.602;11.046;2024-03-08T14:31:57;5.03;;;3.30;;
3359;SDS011;1693;49.602;11.046;2024-03-08T14:34:26;3.43;;;2.27;;
3359;SDS011;1693;49.602;11.046;2024-03-08T14:36:54;4.70;;;2.73;;
3359;SDS011;1693;49.602;11.046;2024-03-08T14:39:22;4.90;;;3.23;;
3359;SDS011;1693;49.602;11.046;2024-03-08T14:41:51;3.83;;;3.37;;
3359;SDS011;1693;49.602;11.046;2024-03-08T14:44:22;6.00;;;4.60;;
3359;SDS011;1693;49.602;11.046;2024-03-08T14:46:51;6.20;;;3.67;;
3359;SDS011;1693;49.602;11.046;2024-03-08T14:49:18;4.93;;;3.70;;
3359;SDS011;1693;49.602;11.046;2024-03-08T14:51:46;4.40;;;3.30;;
3359;SDS011;1693;49.602;11.046;2024-03-08T14:54:13;6.03;;;3.90;;